Symmes Township, Ohio
Current Conditions -  °F | °C
As of 12:53 AM on Thursday 23 Oct 2014 (Local Time) from KHAO Reporting Station
Overcast Overcast  
Wind Chill: 43°   Ceiling: 3100
Heat Index: 43°   Visibility: 10mi
Dew Point: 40°   Wind: 0mph
Humidity: 89%   Direction: NA
Pressure: 30.27"   Gusts: NA
Location:  39.2698°N, 84.3325°W
Report Text: KHAO 230453Z AUTO 00000KT 10SM OVC031 06/04 A3027 RMK AO2 SLP254 T00610044 401280044
Loading
Personal Weather Stations






























Interactive Weather Map
Tropical Storm Tracking
New forecast layout! Learn more

10-Day Weather Forecast

Advertisements
Track Severe Weather on mobile